sensor_id;sensor_type;location;lat;lon;timestamp;P1;durP1;ratioP1;P2;durP2;ratioP2
71771;SDS011;59606;52.138;5.424;2023-08-30T00:00:12;9.00;;;4.93;;
71771;SDS011;59606;52.138;5.424;2023-08-30T00:03:15;9.27;;;4.82;;
71771;SDS011;59606;52.138;5.424;2023-08-30T00:06:04;9.80;;;4.60;;
71771;SDS011;59606;52.138;5.424;2023-08-30T00:08:43;7.97;;;4.47;;
71771;SDS011;59606;52.138;5.424;2023-08-30T00:11:26;11.57;;;5.20;;
71771;SDS011;59606;52.138;5.424;2023-08-30T00:14:03;9.02;;;5.53;;
71771;SDS011;59606;52.138;5.424;2023-08-30T00:16:44;10.00;;;5.13;;
71771;SDS011;59606;52.138;5.424;2023-08-30T00:19:35;10.17;;;5.17;;
71771;SDS011;59606;52.138;5.424;2023-08-30T00:22:08;8.50;;;5.13;;
71771;SDS011;59606;52.138;5.424;2023-08-30T00:24:41;10.18;;;5.38;;
71771;SDS011;59606;52.138;5.424;2023-08-30T00:27:10;9.95;;;5.45;;
71771;SDS011;59606;52.138;5.424;2023-08-30T00:29:43;10.90;;;5.38;;
71771;SDS011;59606;52.138;5.424;2023-08-30T00:32:15;11.27;;;5.70;;
71771;SDS011;59606;52.138;5.424;2023-08-30T00:34:45;10.48;;;5.68;;
71771;SDS011;59606;52.138;5.424;2023-08-30T00:37:24;10.75;;;6.00;;
71771;SDS011;59606;52.138;5.424;2023-08-30T00:40:01;9.88;;;5.55;;
71771;SDS011;59606;52.138;5.424;2023-08-30T00:42:36;11.95;;;5.95;;
71771;SDS011;59606;52.138;5.424;2023-08-30T00:45:07;11.67;;;6.63;;
71771;SDS011;59606;52.138;5.424;2023-08-30T00:47:40;10.25;;;6.03;;
71771;SDS011;59606;52.138;5.424;2023-08-30T00:50:15;14.23;;;6.63;;
71771;SDS011;59606;52.138;5.424;2023-08-30T00:52:52;12.30;;;5.43;;
71771;SDS011;59606;52.138;5.424;2023-08-30T00:55:33;11.57;;;5.75;;
71771;SDS011;59606;52.138;5.424;2023-08-30T00:58:07;10.73;;;5.67;;
71771;SDS011;59606;52.138;5.424;2023-08-30T01:00:43;11.50;;;6.00;;
71771;SDS011;59606;52.138;5.424;2023-08-30T01:03:27;11.75;;;6.03;;
71771;SDS011;59606;52.138;5.424;2023-08-30T01:06:07;10.20;;;5.70;;
71771;SDS011;59606;52.138;5.424;2023-08-30T01:08:50;11.00;;;5.35;;
71771;SDS011;59606;52.138;5.424;2023-08-30T01:18:22;9.18;;;5.15;;
71771;SDS011;59606;52.138;5.424;2023-08-30T01:20:55;10.38;;;5.35;;
71771;SDS011;59606;52.138;5.424;2023-08-30T01:29:19;9.52;;;4.60;;
71771;SDS011;59606;52.138;5.424;2023-08-30T01:31:47;10.02;;;5.45;;
71771;SDS011;59606;52.138;5.424;2023-08-30T01:34:14;11.85;;;5.47;;
71771;SDS011;59606;52.138;5.424;2023-08-30T01:36:42;9.55;;;5.57;;
71771;SDS011;59606;52.138;5.424;2023-08-30T01:39:10;11.70;;;5.03;;
71771;SDS011;59606;52.138;5.424;2023-08-30T01:41:39;27.00;;;5.68;;
71771;SDS011;59606;52.138;5.424;2023-08-30T01:44:06;10.07;;;5.35;;
71771;SDS011;59606;52.138;5.424;2023-08-30T01:46:33;10.13;;;5.50;;
71771;SDS011;59606;52.138;5.424;2023-08-30T01:49:01;8.93;;;5.38;;
71771;SDS011;59606;52.138;5.424;2023-08-30T01:51:30;9.07;;;5.10;;
71771;SDS011;59606;52.138;5.424;2023-08-30T01:53:59;8.95;;;4.95;;
71771;SDS011;59606;52.138;5.424;2023-08-30T01:56:26;11.25;;;5.68;;
71771;SDS011;59606;52.138;5.424;2023-08-30T01:58:52;9.82;;;5.63;;
71771;SDS011;59606;52.138;5.424;2023-08-30T02:01:19;10.77;;;5.68;;
71771;SDS011;59606;52.138;5.424;2023-08-30T02:03:46;13.83;;;6.67;;
71771;SDS011;59606;52.138;5.424;2023-08-30T02:06:23;10.65;;;5.57;;
71771;SDS011;59606;52.138;5.424;2023-08-30T02:08:59;13.35;;;5.82;;
71771;SDS011;59606;52.138;5.424;2023-08-30T02:11:31;12.35;;;5.78;;
71771;SDS011;59606;52.138;5.424;2023-08-30T02:14:00;11.10;;;6.00;;
71771;SDS011;59606;52.138;5.424;2023-08-30T02:16:29;10.00;;;5.60;;
71771;SDS011;59606;52.138;5.424;2023-08-30T02:18:57;13.38;;;5.32;;
71771;SDS011;59606;52.138;5.424;2023-08-30T02:21:23;12.52;;;5.78;;
71771;SDS011;59606;52.138;5.424;2023-08-30T02:23:50;12.68;;;5.10;;
71771;SDS011;59606;52.138;5.424;2023-08-30T02:26:18;12.10;;;5.45;;
71771;SDS011;59606;52.138;5.424;2023-08-30T02:28:45;13.70;;;6.23;;
71771;SDS011;59606;52.138;5.424;2023-08-30T02:31:12;11.95;;;5.75;;
71771;SDS011;59606;52.138;5.424;2023-08-30T02:33:39;12.60;;;5.95;;
71771;SDS011;59606;52.138;5.424;2023-08-30T02:36:05;14.90;;;6.60;;
71771;SDS011;59606;52.138;5.424;2023-08-30T02:38:32;10.65;;;5.80;;
71771;SDS011;59606;52.138;5.424;2023-08-30T02:40:58;13.80;;;6.07;;
71771;SDS011;59606;52.138;5.424;2023-08-30T02:43:25;11.52;;;5.57;;
71771;SDS011;59606;52.138;5.424;2023-08-30T02:45:51;11.35;;;5.55;;
71771;SDS011;59606;52.138;5.424;2023-08-30T02:48:18;13.82;;;5.80;;
71771;SDS011;59606;52.138;5.424;2023-08-30T02:50:45;10.88;;;5.93;;
71771;SDS011;59606;52.138;5.424;2023-08-30T02:53:11;14.73;;;6.57;;
71771;SDS011;59606;52.138;5.424;2023-08-30T02:55:38;12.98;;;6.45;;
71771;SDS011;59606;52.138;5.424;2023-08-30T02:58:04;13.20;;;6.40;;
71771;SDS011;59606;52.138;5.424;2023-08-30T03:00:31;12.07;;;6.07;;
71771;SDS011;59606;52.138;5.424;2023-08-30T03:02:57;14.10;;;6.05;;
71771;SDS011;59606;52.138;5.424;2023-08-30T03:05:24;13.77;;;6.30;;
71771;SDS011;59606;52.138;5.424;2023-08-30T03:07:52;13.95;;;7.00;;
71771;SDS011;59606;52.138;5.424;2023-08-30T03:10:19;13.48;;;6.70;;
71771;SDS011;59606;52.138;5.424;2023-08-30T03:12:46;22.27;;;7.72;;
71771;SDS011;59606;52.138;5.424;2023-08-30T03:15:12;14.10;;;7.38;;
71771;SDS011;59606;52.138;5.424;2023-08-30T03:17:39;12.37;;;6.90;;
71771;SDS011;59606;52.138;5.424;2023-08-30T03:20:05;15.90;;;6.50;;
71771;SDS011;59606;52.138;5.424;2023-08-30T03:22:32;15.00;;;7.38;;
71771;SDS011;59606;52.138;5.424;2023-08-30T03:24:59;14.15;;;7.07;;
71771;SDS011;59606;52.138;5.424;2023-08-30T03:27:29;13.40;;;6.80;;
71771;SDS011;59606;52.138;5.424;2023-08-30T03:29:56;15.07;;;7.57;;
71771;SDS011;59606;52.138;5.424;2023-08-30T03:32:22;15.82;;;7.18;;
71771;SDS011;59606;52.138;5.424;2023-08-30T03:34:49;13.77;;;7.63;;
71771;SDS011;59606;52.138;5.424;2023-08-30T03:37:16;13.45;;;7.00;;
71771;SDS011;59606;52.138;5.424;2023-08-30T03:39:43;13.77;;;7.18;;
71771;SDS011;59606;52.138;5.424;2023-08-30T03:42:09;15.50;;;7.63;;
71771;SDS011;59606;52.138;5.424;2023-08-30T03:44:37;13.68;;;7.30;;
71771;SDS011;59606;52.138;5.424;2023-08-30T03:47:04;16.85;;;7.63;;
71771;SDS011;59606;52.138;5.424;2023-08-30T03:49:31;15.73;;;7.25;;
71771;SDS011;59606;52.138;5.424;2023-08-30T03:51:57;16.95;;;6.88;;
71771;SDS011;59606;52.138;5.424;2023-08-30T03:54:24;13.93;;;7.03;;
71771;SDS011;59606;52.138;5.424;2023-08-30T03:56:51;15.02;;;7.40;;
71771;SDS011;59606;52.138;5.424;2023-08-30T03:59:17;14.80;;;7.32;;
71771;SDS011;59606;52.138;5.424;2023-08-30T04:01:44;17.42;;;7.78;;
71771;SDS011;59606;52.138;5.424;2023-08-30T04:04:11;13.20;;;6.70;;
71771;SDS011;59606;52.138;5.424;2023-08-30T04:06:37;14.87;;;6.27;;
71771;SDS011;59606;52.138;5.424;2023-08-30T04:09:04;13.48;;;6.93;;
71771;SDS011;59606;52.138;5.424;2023-08-30T04:11:31;14.45;;;7.43;;
71771;SDS011;59606;52.138;5.424;2023-08-30T04:13:57;14.15;;;7.30;;
71771;SDS011;59606;52.138;5.424;2023-08-30T04:16:24;15.15;;;7.03;;
71771;SDS011;59606;52.138;5.424;2023-08-30T04:18:50;15.30;;;6.43;;
71771;SDS011;59606;52.138;5.424;2023-08-30T04:21:17;13.68;;;6.95;;
71771;SDS011;59606;52.138;5.424;2023-08-30T04:23:43;14.23;;;7.03;;
71771;SDS011;59606;52.138;5.424;2023-08-30T04:26:10;12.50;;;6.38;;
71771;SDS011;59606;52.138;5.424;2023-08-30T04:28:36;15.43;;;7.20;;
71771;SDS011;59606;52.138;5.424;2023-08-30T04:31:03;16.63;;;7.60;;
71771;SDS011;59606;52.138;5.424;2023-08-30T04:33:30;16.50;;;7.20;;
71771;SDS011;59606;52.138;5.424;2023-08-30T04:35:56;15.27;;;7.20;;
71771;SDS011;59606;52.138;5.424;2023-08-30T04:38:23;14.07;;;7.35;;
71771;SDS011;59606;52.138;5.424;2023-08-30T04:40:49;14.32;;;6.93;;
71771;SDS011;59606;52.138;5.424;2023-08-30T04:43:16;13.83;;;6.60;;
71771;SDS011;59606;52.138;5.424;2023-08-30T04:45:42;14.18;;;6.75;;
71771;SDS011;59606;52.138;5.424;2023-08-30T04:48:12;13.38;;;7.57;;
71771;SDS011;59606;52.138;5.424;2023-08-30T04:50:39;14.25;;;6.32;;
71771;SDS011;59606;52.138;5.424;2023-08-30T04:53:06;15.50;;;7.13;;
71771;SDS011;59606;52.138;5.424;2023-08-30T04:55:33;15.17;;;7.00;;
71771;SDS011;59606;52.138;5.424;2023-08-30T04:57:59;13.07;;;6.35;;
71771;SDS011;59606;52.138;5.424;2023-08-30T05:00:26;14.00;;;7.07;;
71771;SDS011;59606;52.138;5.424;2023-08-30T05:02:53;14.82;;;6.25;;
71771;SDS011;59606;52.138;5.424;2023-08-30T05:05:19;14.02;;;6.40;;
71771;SDS011;59606;52.138;5.424;2023-08-30T05:07:46;14.00;;;6.63;;
71771;SDS011;59606;52.138;5.424;2023-08-30T05:10:13;18.30;;;7.18;;
71771;SDS011;59606;52.138;5.424;2023-08-30T05:12:39;13.85;;;6.80;;
71771;SDS011;59606;52.138;5.424;2023-08-30T05:15:07;13.38;;;5.97;;
71771;SDS011;59606;52.138;5.424;2023-08-30T05:17:33;13.02;;;6.25;;
71771;SDS011;59606;52.138;5.424;2023-08-30T05:20:00;13.97;;;6.67;;
71771;SDS011;59606;52.138;5.424;2023-08-30T05:22:26;16.30;;;6.68;;
71771;SDS011;59606;52.138;5.424;2023-08-30T05:24:53;15.15;;;6.78;;
71771;SDS011;59606;52.138;5.424;2023-08-30T05:27:19;13.88;;;6.40;;
71771;SDS011;59606;52.138;5.424;2023-08-30T05:29:46;14.75;;;7.40;;
71771;SDS011;59606;52.138;5.424;2023-08-30T05:32:12;14.13;;;6.20;;
71771;SDS011;59606;52.138;5.424;2023-08-30T05:34:39;13.82;;;7.13;;
71771;SDS011;59606;52.138;5.424;2023-08-30T05:37:05;13.30;;;6.88;;
71771;SDS011;59606;52.138;5.424;2023-08-30T05:39:32;14.57;;;7.32;;
71771;SDS011;59606;52.138;5.424;2023-08-30T05:42:00;19.40;;;6.95;;
71771;SDS011;59606;52.138;5.424;2023-08-30T05:44:26;15.83;;;7.80;;
71771;SDS011;59606;52.138;5.424;2023-08-30T05:46:53;15.55;;;7.07;;
71771;SDS011;59606;52.138;5.424;2023-08-30T05:49:20;15.98;;;6.80;;
71771;SDS011;59606;52.138;5.424;2023-08-30T05:51:46;18.52;;;8.52;;
71771;SDS011;59606;52.138;5.424;2023-08-30T05:54:13;16.40;;;7.43;;
71771;SDS011;59606;52.138;5.424;2023-08-30T05:56:40;14.30;;;7.57;;
71771;SDS011;59606;52.138;5.424;2023-08-30T05:59:08;15.02;;;6.90;;
71771;SDS011;59606;52.138;5.424;2023-08-30T06:01:34;12.13;;;6.55;;
71771;SDS011;59606;52.138;5.424;2023-08-30T06:04:01;16.08;;;7.15;;
71771;SDS011;59606;52.138;5.424;2023-08-30T06:06:30;15.30;;;7.20;;
71771;SDS011;59606;52.138;5.424;2023-08-30T06:08:57;12.73;;;7.57;;
71771;SDS011;59606;52.138;5.424;2023-08-30T06:11:24;12.90;;;7.28;;
71771;SDS011;59606;52.138;5.424;2023-08-30T06:13:51;13.88;;;7.07;;
71771;SDS011;59606;52.138;5.424;2023-08-30T06:16:17;13.95;;;6.95;;
71771;SDS011;59606;52.138;5.424;2023-08-30T06:18:44;14.13;;;7.05;;
71771;SDS011;59606;52.138;5.424;2023-08-30T06:21:10;13.57;;;8.03;;
71771;SDS011;59606;52.138;5.424;2023-08-30T06:23:37;12.98;;;7.45;;
71771;SDS011;59606;52.138;5.424;2023-08-30T06:26:04;14.20;;;6.97;;
71771;SDS011;59606;52.138;5.424;2023-08-30T06:28:31;14.80;;;6.82;;
71771;SDS011;59606;52.138;5.424;2023-08-30T06:30:57;13.45;;;6.93;;
71771;SDS011;59606;52.138;5.424;2023-08-30T06:33:24;15.30;;;7.40;;
71771;SDS011;59606;52.138;5.424;2023-08-30T06:35:50;14.50;;;6.45;;
71771;SDS011;59606;52.138;5.424;2023-08-30T06:38:19;14.95;;;7.57;;
71771;SDS011;59606;52.138;5.424;2023-08-30T06:40:46;15.80;;;6.75;;
71771;SDS011;59606;52.138;5.424;2023-08-30T06:43:13;13.35;;;7.32;;
71771;SDS011;59606;52.138;5.424;2023-08-30T06:45:39;14.73;;;6.80;;
71771;SDS011;59606;52.138;5.424;2023-08-30T06:48:06;16.67;;;7.97;;
71771;SDS011;59606;52.138;5.424;2023-08-30T06:50:34;14.32;;;7.07;;
71771;SDS011;59606;52.138;5.424;2023-08-30T06:53:02;15.60;;;6.90;;
71771;SDS011;59606;52.138;5.424;2023-08-30T06:55:29;19.40;;;8.05;;
71771;SDS011;59606;52.138;5.424;2023-08-30T06:57:56;13.87;;;7.50;;
71771;SDS011;59606;52.138;5.424;2023-08-30T07:00:22;14.25;;;7.00;;
71771;SDS011;59606;52.138;5.424;2023-08-30T07:02:48;18.00;;;7.43;;
71771;SDS011;59606;52.138;5.424;2023-08-30T07:05:15;14.77;;;7.30;;
71771;SDS011;59606;52.138;5.424;2023-08-30T07:07:42;15.18;;;7.25;;
71771;SDS011;59606;52.138;5.424;2023-08-30T07:10:09;18.20;;;8.33;;
71771;SDS011;59606;52.138;5.424;2023-08-30T07:12:35;18.70;;;7.93;;
71771;SDS011;59606;52.138;5.424;2023-08-30T07:15:02;14.95;;;7.20;;
71771;SDS011;59606;52.138;5.424;2023-08-30T07:17:30;19.55;;;7.68;;
71771;SDS011;59606;52.138;5.424;2023-08-30T07:20:15;13.95;;;6.50;;
71771;SDS011;59606;52.138;5.424;2023-08-30T07:22:42;14.97;;;6.70;;
71771;SDS011;59606;52.138;5.424;2023-08-30T07:25:09;14.27;;;7.75;;
71771;SDS011;59606;52.138;5.424;2023-08-30T07:27:36;14.63;;;7.10;;
71771;SDS011;59606;52.138;5.424;2023-08-30T07:30:03;13.70;;;7.03;;
71771;SDS011;59606;52.138;5.424;2023-08-30T07:32:30;13.98;;;6.70;;
71771;SDS011;59606;52.138;5.424;2023-08-30T07:34:57;15.63;;;7.23;;
71771;SDS011;59606;52.138;5.424;2023-08-30T07:37:23;13.85;;;7.30;;
71771;SDS011;59606;52.138;5.424;2023-08-30T07:39:51;13.30;;;6.82;;
71771;SDS011;59606;52.138;5.424;2023-08-30T07:42:18;13.70;;;6.78;;
71771;SDS011;59606;52.138;5.424;2023-08-30T07:44:45;13.38;;;6.38;;
71771;SDS011;59606;52.138;5.424;2023-08-30T07:47:11;12.67;;;7.17;;
71771;SDS011;59606;52.138;5.424;2023-08-30T07:49:39;15.45;;;7.18;;
71771;SDS011;59606;52.138;5.424;2023-08-30T07:52:07;14.80;;;7.05;;
71771;SDS011;59606;52.138;5.424;2023-08-30T07:54:37;16.35;;;7.20;;
71771;SDS011;59606;52.138;5.424;2023-08-30T07:57:05;16.30;;;7.03;;
71771;SDS011;59606;52.138;5.424;2023-08-30T07:59:37;12.93;;;6.60;;
71771;SDS011;59606;52.138;5.424;2023-08-30T08:02:05;11.02;;;6.05;;
71771;SDS011;59606;52.138;5.424;2023-08-30T08:04:34;14.07;;;6.65;;
71771;SDS011;59606;52.138;5.424;2023-08-30T08:07:02;11.80;;;6.18;;
71771;SDS011;59606;52.138;5.424;2023-08-30T08:09:30;13.70;;;6.32;;
71771;SDS011;59606;52.138;5.424;2023-08-30T08:11:57;11.63;;;5.67;;
71771;SDS011;59606;52.138;5.424;2023-08-30T08:14:24;14.13;;;6.15;;
71771;SDS011;59606;52.138;5.424;2023-08-30T08:16:51;11.40;;;6.13;;
71771;SDS011;59606;52.138;5.424;2023-08-30T08:19:18;13.27;;;6.53;;
71771;SDS011;59606;52.138;5.424;2023-08-30T08:21:50;14.15;;;6.05;;
71771;SDS011;59606;52.138;5.424;2023-08-30T08:24:17;14.50;;;5.90;;
71771;SDS011;59606;52.138;5.424;2023-08-30T08:26:43;13.88;;;6.22;;
71771;SDS011;59606;52.138;5.424;2023-08-30T08:29:10;10.00;;;5.65;;
71771;SDS011;59606;52.138;5.424;2023-08-30T08:31:36;9.45;;;4.90;;
71771;SDS011;59606;52.138;5.424;2023-08-30T08:34:09;10.93;;;5.28;;
71771;SDS011;59606;52.138;5.424;2023-08-30T08:36:38;10.23;;;5.90;;
71771;SDS011;59606;52.138;5.424;2023-08-30T08:39:05;10.27;;;4.95;;
71771;SDS011;59606;52.138;5.424;2023-08-30T08:41:35;9.15;;;5.22;;
71771;SDS011;59606;52.138;5.424;2023-08-30T08:44:06;11.63;;;4.97;;
71771;SDS011;59606;52.138;5.424;2023-08-30T08:46:37;8.98;;;4.97;;
71771;SDS011;59606;52.138;5.424;2023-08-30T08:49:08;8.63;;;5.10;;
71771;SDS011;59606;52.138;5.424;2023-08-30T08:51:37;11.00;;;4.90;;
71771;SDS011;59606;52.138;5.424;2023-08-30T08:54:04;12.25;;;5.47;;
71771;SDS011;59606;52.138;5.424;2023-08-30T08:56:31;12.48;;;5.03;;
71771;SDS011;59606;52.138;5.424;2023-08-30T08:59:02;9.35;;;5.07;;
71771;SDS011;59606;52.138;5.424;2023-08-30T09:01:29;12.60;;;5.60;;
71771;SDS011;59606;52.138;5.424;2023-08-30T09:04:10;11.68;;;5.10;;
71771;SDS011;59606;52.138;5.424;2023-08-30T09:06:38;11.77;;;5.18;;
71771;SDS011;59606;52.138;5.424;2023-08-30T09:09:09;9.45;;;4.47;;
71771;SDS011;59606;52.138;5.424;2023-08-30T09:11:36;10.52;;;4.95;;
71771;SDS011;59606;52.138;5.424;2023-08-30T09:14:16;8.17;;;4.80;;
71771;SDS011;59606;52.138;5.424;2023-08-30T09:16:56;9.73;;;4.88;;
71771;SDS011;59606;52.138;5.424;2023-08-30T09:19:27;10.13;;;5.25;;
71771;SDS011;59606;52.138;5.424;2023-08-30T09:21:54;9.90;;;4.75;;
71771;SDS011;59606;52.138;5.424;2023-08-30T09:24:22;9.75;;;4.63;;
71771;SDS011;59606;52.138;5.424;2023-08-30T09:26:50;9.17;;;4.93;;
71771;SDS011;59606;52.138;5.424;2023-08-30T09:29:18;10.32;;;5.28;;
71771;SDS011;59606;52.138;5.424;2023-08-30T09:31:46;9.45;;;4.78;;
71771;SDS011;59606;52.138;5.424;2023-08-30T09:34:16;8.48;;;4.55;;
71771;SDS011;59606;52.138;5.424;2023-08-30T09:36:43;8.45;;;5.00;;
71771;SDS011;59606;52.138;5.424;2023-08-30T09:39:13;9.93;;;5.03;;
71771;SDS011;59606;52.138;5.424;2023-08-30T09:41:41;9.05;;;5.00;;
71771;SDS011;59606;52.138;5.424;2023-08-30T09:44:11;10.52;;;4.93;;
71771;SDS011;59606;52.138;5.424;2023-08-30T09:46:43;9.63;;;4.80;;
71771;SDS011;59606;52.138;5.424;2023-08-30T09:49:23;8.90;;;5.45;;
71771;SDS011;59606;52.138;5.424;2023-08-30T09:51:52;8.93;;;4.90;;
71771;SDS011;59606;52.138;5.424;2023-08-30T09:54:20;10.00;;;5.60;;
71771;SDS011;59606;52.138;5.424;2023-08-30T09:57:05;10.75;;;5.45;;
71771;SDS011;59606;52.138;5.424;2023-08-30T09:59:32;11.95;;;5.78;;
71771;SDS011;59606;52.138;5.424;2023-08-30T10:01:59;11.10;;;5.82;;
71771;SDS011;59606;52.138;5.424;2023-08-30T10:04:27;9.37;;;5.47;;
71771;SDS011;59606;52.138;5.424;2023-08-30T10:06:55;13.77;;;5.90;;
71771;SDS011;59606;52.138;5.424;2023-08-30T10:09:24;11.88;;;6.63;;
71771;SDS011;59606;52.138;5.424;2023-08-30T10:11:50;10.52;;;6.07;;
71771;SDS011;59606;52.138;5.424;2023-08-30T10:14:17;11.70;;;6.15;;
71771;SDS011;59606;52.138;5.424;2023-08-30T10:16:45;10.30;;;5.57;;
71771;SDS011;59606;52.138;5.424;2023-08-30T10:19:16;10.65;;;6.50;;
71771;SDS011;59606;52.138;5.424;2023-08-30T10:22:06;11.50;;;6.60;;
71771;SDS011;59606;52.138;5.424;2023-08-30T10:24:42;12.30;;;6.70;;
71771;SDS011;59606;52.138;5.424;2023-08-30T10:27:31;10.48;;;6.50;;
71771;SDS011;59606;52.138;5.424;2023-08-30T10:30:02;10.30;;;6.43;;
71771;SDS011;59606;52.138;5.424;2023-08-30T10:32:31;14.52;;;7.35;;
71771;SDS011;59606;52.138;5.424;2023-08-30T10:35:00;13.30;;;7.15;;
71771;SDS011;59606;52.138;5.424;2023-08-30T10:37:29;11.55;;;7.47;;
71771;SDS011;59606;52.138;5.424;2023-08-30T10:39:59;12.65;;;6.82;;
71771;SDS011;59606;52.138;5.424;2023-08-30T10:42:30;10.03;;;6.90;;
71771;SDS011;59606;52.138;5.424;2023-08-30T10:44:57;11.23;;;6.47;;
71771;SDS011;59606;52.138;5.424;2023-08-30T10:47:36;9.40;;;5.70;;
71771;SDS011;59606;52.138;5.424;2023-08-30T10:50:09;7.63;;;4.88;;
71771;SDS011;59606;52.138;5.424;2023-08-30T10:52:37;8.40;;;4.82;;
71771;SDS011;59606;52.138;5.424;2023-08-30T10:55:04;7.97;;;4.60;;
71771;SDS011;59606;52.138;5.424;2023-08-30T10:57:41;8.55;;;3.97;;
71771;SDS011;59606;52.138;5.424;2023-08-30T11:02:50;5.75;;;3.47;;
71771;SDS011;59606;52.138;5.424;2023-08-30T11:05:18;8.25;;;3.83;;
71771;SDS011;59606;52.138;5.424;2023-08-30T11:07:47;8.33;;;3.17;;
71771;SDS011;59606;52.138;5.424;2023-08-30T11:10:15;5.90;;;2.92;;
71771;SDS011;59606;52.138;5.424;2023-08-30T11:12:42;4.95;;;2.85;;
71771;SDS011;59606;52.138;5.424;2023-08-30T11:15:11;9.07;;;2.80;;
71771;SDS011;59606;52.138;5.424;2023-08-30T11:17:44;9.27;;;2.40;;
71771;SDS011;59606;52.138;5.424;2023-08-30T11:22:41;7.72;;;2.13;;
71771;SDS011;59606;52.138;5.424;2023-08-30T11:25:10;5.05;;;2.00;;
71771;SDS011;59606;52.138;5.424;2023-08-30T11:27:38;5.18;;;2.08;;
71771;SDS011;59606;52.138;5.424;2023-08-30T11:30:05;7.38;;;2.05;;
71771;SDS011;59606;52.138;5.424;2023-08-30T11:35:01;6.20;;;1.85;;
71771;SDS011;59606;52.138;5.424;2023-08-30T11:37:28;4.93;;;2.47;;
71771;SDS011;59606;52.138;5.424;2023-08-30T11:39:56;7.13;;;2.53;;
71771;SDS011;59606;52.138;5.424;2023-08-30T11:42:23;5.75;;;1.80;;
71771;SDS011;59606;52.138;5.424;2023-08-30T11:44:51;7.10;;;1.90;;
71771;SDS011;59606;52.138;5.424;2023-08-30T11:47:18;4.47;;;1.60;;
71771;SDS011;59606;52.138;5.424;2023-08-30T11:49:47;6.65;;;1.77;;
71771;SDS011;59606;52.138;5.424;2023-08-30T11:52:16;6.53;;;1.90;;
71771;SDS011;59606;52.138;5.424;2023-08-30T11:54:44;4.78;;;1.73;;
71771;SDS011;59606;52.138;5.424;2023-08-30T11:57:11;6.33;;;1.70;;
71771;SDS011;59606;52.138;5.424;2023-08-30T11:59:38;6.85;;;2.13;;
71771;SDS011;59606;52.138;5.424;2023-08-30T12:02:07;6.88;;;2.10;;
71771;SDS011;59606;52.138;5.424;2023-08-30T12:04:43;5.78;;;2.10;;
71771;SDS011;59606;52.138;5.424;2023-08-30T12:07:24;5.03;;;2.17;;
71771;SDS011;59606;52.138;5.424;2023-08-30T12:09:52;6.23;;;1.90;;
71771;SDS011;59606;52.138;5.424;2023-08-30T12:12:30;4.68;;;1.63;;
71771;SDS011;59606;52.138;5.424;2023-08-30T12:14:57;7.55;;;2.00;;
71771;SDS011;59606;52.138;5.424;2023-08-30T12:17:24;8.02;;;2.10;;
71771;SDS011;59606;52.138;5.424;2023-08-30T12:19:57;8.75;;;2.20;;
71771;SDS011;59606;52.138;5.424;2023-08-30T12:22:35;4.73;;;1.83;;
71771;SDS011;59606;52.138;5.424;2023-08-30T12:25:03;8.45;;;1.88;;
71771;SDS011;59606;52.138;5.424;2023-08-30T12:27:30;4.05;;;1.35;;
71771;SDS011;59606;52.138;5.424;2023-08-30T12:29:56;5.13;;;1.38;;
71771;SDS011;59606;52.138;5.424;2023-08-30T12:32:23;5.00;;;1.60;;
71771;SDS011;59606;52.138;5.424;2023-08-30T12:34:49;4.73;;;1.67;;
71771;SDS011;59606;52.138;5.424;2023-08-30T12:37:16;7.70;;;1.77;;
71771;SDS011;59606;52.138;5.424;2023-08-30T12:39:42;8.98;;;2.25;;
71771;SDS011;59606;52.138;5.424;2023-08-30T12:42:09;5.07;;;2.13;;
71771;SDS011;59606;52.138;5.424;2023-08-30T12:44:38;5.00;;;1.25;;
71771;SDS011;59606;52.138;5.424;2023-08-30T12:47:04;8.23;;;1.73;;
71771;SDS011;59606;52.138;5.424;2023-08-30T12:49:31;6.95;;;1.45;;
71771;SDS011;59606;52.138;5.424;2023-08-30T12:51:58;6.30;;;1.33;;
71771;SDS011;59606;52.138;5.424;2023-08-30T12:54:24;7.53;;;1.58;;
71771;SDS011;59606;52.138;5.424;2023-08-30T12:56:51;4.63;;;1.48;;
71771;SDS011;59606;52.138;5.424;2023-08-30T12:59:19;8.27;;;1.67;;
71771;SDS011;59606;52.138;5.424;2023-08-30T13:01:45;8.27;;;1.95;;
71771;SDS011;59606;52.138;5.424;2023-08-30T13:04:12;4.70;;;1.63;;
71771;SDS011;59606;52.138;5.424;2023-08-30T13:06:38;6.75;;;1.30;;
71771;SDS011;59606;52.138;5.424;2023-08-30T13:09:05;3.80;;;1.37;;
71771;SDS011;59606;52.138;5.424;2023-08-30T13:11:31;5.70;;;1.52;;
71771;SDS011;59606;52.138;5.424;2023-08-30T13:13:58;6.60;;;1.20;;
71771;SDS011;59606;52.138;5.424;2023-08-30T13:16:25;7.05;;;1.63;;
71771;SDS011;59606;52.138;5.424;2023-08-30T13:18:52;4.43;;;1.38;;
71771;SDS011;59606;52.138;5.424;2023-08-30T13:21:18;6.03;;;1.30;;
71771;SDS011;59606;52.138;5.424;2023-08-30T13:23:56;2.85;;;1.10;;
71771;SDS011;59606;52.138;5.424;2023-08-30T13:26:22;8.00;;;1.50;;
71771;SDS011;59606;52.138;5.424;2023-08-30T13:28:49;5.53;;;1.30;;
71771;SDS011;59606;52.138;5.424;2023-08-30T13:31:16;6.20;;;1.40;;
71771;SDS011;59606;52.138;5.424;2023-08-30T13:33:42;6.20;;;1.50;;
71771;SDS011;59606;52.138;5.424;2023-08-30T13:36:09;6.88;;;1.40;;
71771;SDS011;59606;52.138;5.424;2023-08-30T13:38:35;5.80;;;1.38;;
71771;SDS011;59606;52.138;5.424;2023-08-30T13:41:02;6.57;;;1.52;;
71771;SDS011;59606;52.138;5.424;2023-08-30T13:43:30;4.78;;;1.55;;
71771;SDS011;59606;52.138;5.424;2023-08-30T13:45:58;5.63;;;2.20;;
71771;SDS011;59606;52.138;5.424;2023-08-30T13:48:25;5.47;;;1.20;;
71771;SDS011;59606;52.138;5.424;2023-08-30T13:50:52;5.97;;;1.48;;
71771;SDS011;59606;52.138;5.424;2023-08-30T13:53:18;8.43;;;1.00;;
71771;SDS011;59606;52.138;5.424;2023-08-30T13:55:45;4.22;;;1.35;;
71771;SDS011;59606;52.138;5.424;2023-08-30T13:58:14;6.00;;;1.65;;
71771;SDS011;59606;52.138;5.424;2023-08-30T14:00:41;6.82;;;1.58;;
71771;SDS011;59606;52.138;5.424;2023-08-30T14:03:08;8.48;;;1.75;;
71771;SDS011;59606;52.138;5.424;2023-08-30T14:05:36;8.05;;;1.75;;
71771;SDS011;59606;52.138;5.424;2023-08-30T14:08:06;4.25;;;1.27;;
71771;SDS011;59606;52.138;5.424;2023-08-30T14:10:34;7.35;;;1.58;;
71771;SDS011;59606;52.138;5.424;2023-08-30T14:13:01;4.27;;;0.93;;
71771;SDS011;59606;52.138;5.424;2023-08-30T14:15:27;3.47;;;1.30;;
71771;SDS011;59606;52.138;5.424;2023-08-30T14:17:54;4.32;;;0.95;;
71771;SDS011;59606;52.138;5.424;2023-08-30T14:20:20;8.27;;;1.10;;
71771;SDS011;59606;52.138;5.424;2023-08-30T14:22:47;3.58;;;0.90;;
71771;SDS011;59606;52.138;5.424;2023-08-30T14:25:14;3.65;;;0.93;;
71771;SDS011;59606;52.138;5.424;2023-08-30T14:27:40;4.53;;;1.10;;
71771;SDS011;59606;52.138;5.424;2023-08-30T14:30:07;3.13;;;1.20;;
71771;SDS011;59606;52.138;5.424;2023-08-30T14:32:34;4.93;;;1.45;;
71771;SDS011;59606;52.138;5.424;2023-08-30T14:35:02;3.88;;;0.88;;
71771;SDS011;59606;52.138;5.424;2023-08-30T14:37:29;4.97;;;1.17;;
71771;SDS011;59606;52.138;5.424;2023-08-30T14:39:55;3.33;;;1.30;;
71771;SDS011;59606;52.138;5.424;2023-08-30T14:42:22;3.35;;;1.30;;
71771;SDS011;59606;52.138;5.424;2023-08-30T14:44:49;3.58;;;1.30;;
71771;SDS011;59606;52.138;5.424;2023-08-30T14:47:17;4.00;;;1.50;;
71771;SDS011;59606;52.138;5.424;2023-08-30T14:49:45;4.17;;;1.63;;
71771;SDS011;59606;52.138;5.424;2023-08-30T14:52:12;5.32;;;1.58;;
71771;SDS011;59606;52.138;5.424;2023-08-30T14:54:40;5.50;;;1.60;;
71771;SDS011;59606;52.138;5.424;2023-08-30T14:57:07;6.65;;;1.65;;
71771;SDS011;59606;52.138;5.424;2023-08-30T14:59:34;5.10;;;1.33;;
71771;SDS011;59606;52.138;5.424;2023-08-30T15:02:00;3.47;;;1.57;;
71771;SDS011;59606;52.138;5.424;2023-08-30T15:04:27;4.63;;;1.70;;
71771;SDS011;59606;52.138;5.424;2023-08-30T15:06:54;9.23;;;2.55;;
71771;SDS011;59606;52.138;5.424;2023-08-30T15:09:21;4.55;;;1.50;;